createdAt,value
2017-09-30T00:01:33.955Z,15.40
2017-09-30T00:04:01.452Z,13.90
2017-09-30T00:06:28.945Z,14.60
2017-09-30T00:08:56.472Z,15.00
2017-09-30T00:11:23.963Z,13.30
2017-09-30T00:13:52.254Z,13.30
2017-09-30T00:16:19.745Z,16.23
2017-09-30T00:18:47.257Z,14.77
2017-09-30T00:21:14.774Z,14.10
2017-09-30T00:23:42.307Z,33.33
2017-09-30T00:26:09.800Z,16.13
2017-09-30T00:28:37.292Z,13.50
2017-09-30T00:31:04.806Z,7.40
2017-09-30T00:33:33.097Z,12.30
2017-09-30T00:36:00.607Z,8.20
2017-09-30T00:38:28.094Z,5.83
2017-09-30T00:40:55.624Z,17.67
2017-09-30T00:43:23.117Z,12.23
2017-09-30T00:45:50.614Z,11.33
2017-09-30T00:48:18.129Z,8.50
2017-09-30T00:50:45.720Z,8.63
2017-09-30T00:53:13.241Z,7.50
2017-09-30T00:55:40.753Z,6.67
2017-09-30T00:58:09.033Z,10.13
2017-09-30T01:00:36.577Z,6.57
2017-09-30T01:03:04.078Z,6.43
2017-09-30T01:05:31.590Z,6.53
2017-09-30T01:07:59.105Z,8.53
2017-09-30T01:10:26.597Z,6.50
2017-09-30T01:12:54.133Z,4.20
2017-09-30T01:15:21.621Z,6.30
2017-09-30T01:17:49.109Z,5.50
2017-09-30T01:20:16.624Z,3.73
2017-09-30T01:22:44.121Z,5.53
2017-09-30T01:25:11.652Z,11.67
2017-09-30T01:27:39.141Z,5.77
2017-09-30T01:30:06.646Z,6.33
2017-09-30T01:32:34.157Z,7.43
2017-09-30T01:35:01.640Z,3.90
2017-09-30T01:37:29.159Z,5.20
2017-09-30T01:39:56.665Z,4.20
2017-09-30T01:42:24.186Z,4.60
2017-09-30T01:44:52.442Z,4.50
2017-09-30T01:47:20.737Z,7.93
2017-09-30T01:49:48.233Z,4.30
2017-09-30T01:52:15.717Z,4.83
2017-09-30T01:54:43.245Z,4.10
2017-09-30T01:57:11.505Z,7.00
2017-09-30T01:59:39.785Z,5.57
2017-09-30T02:02:07.306Z,4.63
2017-09-30T02:04:35.565Z,5.10
2017-09-30T02:07:03.848Z,7.33
2017-09-30T02:09:31.337Z,6.40
2017-09-30T02:11:58.870Z,11.43
2017-09-30T02:14:26.352Z,5.00
2017-09-30T02:16:54.610Z,8.17
2017-09-30T02:19:22.153Z,6.33
2017-09-30T02:21:50.410Z,5.87
2017-09-30T02:24:18.665Z,5.00
2017-09-30T02:26:46.191Z,4.53
2017-09-30T02:29:13.677Z,6.33
2017-09-30T02:31:41.210Z,4.23
2017-09-30T02:34:08.713Z,5.37
2017-09-30T02:36:36.208Z,7.13
2017-09-30T02:39:03.729Z,3.23
2017-09-30T02:41:31.991Z,4.93
2017-09-30T02:44:00.293Z,14.80
2017-09-30T02:46:27.785Z,3.43
2017-09-30T02:48:55.297Z,3.00
2017-09-30T02:51:22.825Z,7.23
2017-09-30T02:53:50.319Z,6.37
2017-09-30T02:56:18.616Z,3.60
2017-09-30T02:58:46.106Z,3.83
2017-09-30T03:01:13.594Z,5.53
2017-09-30T03:03:41.121Z,2.70
2017-09-30T03:06:09.382Z,5.80
2017-09-30T03:08:37.641Z,4.43
2017-09-30T03:11:05.926Z,5.67
2017-09-30T03:13:33.414Z,8.57
2017-09-30T03:16:00.941Z,5.60
2017-09-30T03:18:28.429Z,5.17
2017-09-30T03:20:56.689Z,8.17
2017-09-30T03:23:24.969Z,3.87
2017-09-30T03:25:52.465Z,6.57
2017-09-30T03:28:19.984Z,3.87
2017-09-30T03:30:47.473Z,3.73
2017-09-30T03:33:15.725Z,3.00
2017-09-30T03:35:43.239Z,3.47
2017-09-30T03:38:10.733Z,7.00
2017-09-30T03:40:39.021Z,3.73
2017-09-30T03:43:06.536Z,7.07
2017-09-30T03:45:34.794Z,2.97
2017-09-30T03:48:02.321Z,4.33
2017-09-30T03:50:29.808Z,8.83
2017-09-30T03:52:57.297Z,6.30
2017-09-30T03:55:24.817Z,3.87
2017-09-30T03:57:52.326Z,3.83
2017-09-30T04:00:19.838Z,3.77
2017-09-30T04:02:47.338Z,4.00
2017-09-30T04:05:14.865Z,4.00
2017-09-30T04:07:42.357Z,3.20
2017-09-30T04:10:09.854Z,3.13
2017-09-30T04:12:37.365Z,3.40
2017-09-30T04:15:05.618Z,5.27
2017-09-30T04:17:33.136Z,7.10
2017-09-30T04:20:00.625Z,3.50
2017-09-30T04:22:28.273Z,6.90
2017-09-30T04:24:55.796Z,4.30
2017-09-30T04:27:23.281Z,5.33
2017-09-30T04:29:50.779Z,3.90
2017-09-30T04:32:18.305Z,3.77
2017-09-30T04:34:45.794Z,3.80
2017-09-30T04:37:13.293Z,5.93
2017-09-30T04:39:40.822Z,7.77
2017-09-30T04:42:08.307Z,4.93
2017-09-30T04:44:35.806Z,3.60
2017-09-30T04:47:03.346Z,6.60
2017-09-30T04:49:30.841Z,14.93
2017-09-30T04:51:58.325Z,9.03
2017-09-30T04:54:25.854Z,6.53
2017-09-30T04:56:53.350Z,5.03
2017-09-30T04:59:20.869Z,8.77
2017-09-30T05:01:48.358Z,3.97
2017-09-30T05:04:16.641Z,5.20
2017-09-30T05:06:44.131Z,5.07
2017-09-30T05:09:11.666Z,6.10
2017-09-30T05:11:39.154Z,7.63
2017-09-30T05:14:07.424Z,5.90
2017-09-30T05:16:35.709Z,8.20
2017-09-30T05:19:03.206Z,17.73
2017-09-30T05:21:31.502Z,9.20
2017-09-30T05:23:58.998Z,8.67
2017-09-30T05:26:26.490Z,10.97
2017-09-30T05:28:54.009Z,8.80
2017-09-30T05:31:22.270Z,9.50
2017-09-30T05:33:50.561Z,6.27
2017-09-30T05:36:18.055Z,6.50
2017-09-30T05:38:45.581Z,6.03
2017-09-30T05:41:13.072Z,5.30
2017-09-30T05:43:40.602Z,8.77
2017-09-30T05:46:08.138Z,5.60
2017-09-30T05:48:36.434Z,6.27
2017-09-30T05:51:03.946Z,7.30
2017-09-30T05:53:32.205Z,10.13
2017-09-30T05:56:00.489Z,5.77
2017-09-30T05:58:27.993Z,8.20
2017-09-30T06:00:55.522Z,6.60
2017-09-30T06:03:23.009Z,5.40
2017-09-30T06:05:51.281Z,6.47
2017-09-30T06:08:18.880Z,12.13
2017-09-30T06:10:46.361Z,5.17
2017-09-30T06:13:13.861Z,5.80
2017-09-30T06:15:41.412Z,13.33
2017-09-30T06:18:08.910Z,6.53
2017-09-30T06:20:36.397Z,5.60
2017-09-30T06:23:03.937Z,8.43
2017-09-30T06:25:31.439Z,9.73
2017-09-30T06:27:58.938Z,8.37
2017-09-30T06:30:26.499Z,7.87
2017-09-30T06:32:54.774Z,6.50
2017-09-30T06:35:22.270Z,7.50
2017-09-30T06:37:49.794Z,8.63
2017-09-30T06:40:17.284Z,8.37
2017-09-30T06:42:44.809Z,8.43
2017-09-30T06:45:12.313Z,5.40
2017-09-30T06:47:39.840Z,10.90
2017-09-30T06:50:08.094Z,8.30
2017-09-30T06:52:36.387Z,10.47
2017-09-30T06:55:03.889Z,5.13
2017-09-30T06:57:32.178Z,7.60
2017-09-30T06:59:59.670Z,8.83
2017-09-30T07:02:27.163Z,6.40
2017-09-30T07:04:54.692Z,8.60
2017-09-30T07:07:22.953Z,8.27
2017-09-30T07:09:51.205Z,9.03
2017-09-30T07:12:19.506Z,6.70
2017-09-30T07:14:46.993Z,9.17
2017-09-30T07:17:14.521Z,8.27
2017-09-30T07:19:42.008Z,6.87
2017-09-30T07:22:10.260Z,9.40
2017-09-30T07:24:37.811Z,13.83
2017-09-30T07:27:06.068Z,10.00
2017-09-30T07:29:34.317Z,7.30
2017-09-30T07:32:02.618Z,12.53
2017-09-30T07:34:30.123Z,15.07
2017-09-30T07:36:58.413Z,9.67
2017-09-30T07:39:25.909Z,11.17
2017-09-30T07:41:53.441Z,10.00
2017-09-30T07:44:20.940Z,10.53
2017-09-30T07:46:48.433Z,10.57
2017-09-30T07:49:15.966Z,9.13
2017-09-30T07:51:43.488Z,6.23
2017-09-30T07:54:10.974Z,6.40
2017-09-30T07:56:38.504Z,7.20
2017-09-30T07:59:06.010Z,10.33
2017-09-30T08:01:33.514Z,12.00
2017-09-30T08:04:01.811Z,10.10
2017-09-30T08:06:29.338Z,14.23
2017-09-30T08:08:57.626Z,15.70
2017-09-30T08:11:25.130Z,16.97
2017-09-30T08:13:53.413Z,13.37
2017-09-30T08:16:20.937Z,10.90
2017-09-30T08:18:49.226Z,12.83
2017-09-30T08:21:16.725Z,19.87
2017-09-30T08:23:44.282Z,18.27
2017-09-30T08:26:12.541Z,14.70
2017-09-30T08:28:40.817Z,18.20
2017-09-30T08:31:08.353Z,14.67
2017-09-30T08:33:36.620Z,15.43
2017-09-30T08:36:04.128Z,15.33
2017-09-30T08:38:31.652Z,14.60
2017-09-30T08:40:59.158Z,14.67
2017-09-30T08:43:26.694Z,16.30
2017-09-30T08:45:54.959Z,22.10
2017-09-30T08:48:23.221Z,21.80
2017-09-30T08:50:50.751Z,24.57
2017-09-30T08:53:19.019Z,25.90
2017-09-30T08:55:47.362Z,19.37
2017-09-30T08:58:14.868Z,19.50
2017-09-30T09:00:42.378Z,24.93
2017-09-30T09:03:09.899Z,25.40
2017-09-30T09:05:38.175Z,19.47
2017-09-30T09:08:05.736Z,23.20
2017-09-30T09:10:33.242Z,24.77
2017-09-30T09:13:01.523Z,20.07
2017-09-30T09:15:29.811Z,24.97
2017-09-30T09:17:57.350Z,21.47
2017-09-30T09:20:24.878Z,22.53
2017-09-30T09:22:52.410Z,22.20
2017-09-30T09:25:20.747Z,21.17
2017-09-30T09:27:48.241Z,21.20
2017-09-30T09:30:15.737Z,22.40
2017-09-30T09:32:43.261Z,22.20
2017-09-30T09:35:10.753Z,29.53
2017-09-30T09:37:38.302Z,29.50
2017-09-30T09:40:05.806Z,28.00
2017-09-30T09:42:33.330Z,30.07
2017-09-30T09:45:00.827Z,32.23
2017-09-30T09:47:28.378Z,32.33
2017-09-30T09:49:55.873Z,28.83
2017-09-30T09:52:23.408Z,35.73
2017-09-30T09:54:50.906Z,30.43
2017-09-30T09:57:18.397Z,36.63
2017-09-30T09:59:45.922Z,36.00
2017-09-30T10:02:13.420Z,32.50
2017-09-30T10:04:41.722Z,30.30
2017-09-30T10:07:09.233Z,34.13
2017-09-30T10:09:36.727Z,35.30
2017-09-30T10:12:04.250Z,41.13
2017-09-30T10:14:31.769Z,28.70
2017-09-30T10:16:59.316Z,35.80
2017-09-30T10:19:26.833Z,35.10
2017-09-30T10:21:55.109Z,39.33
2017-09-30T10:24:22.640Z,27.83
2017-09-30T10:26:50.165Z,26.33
2017-09-30T10:29:17.720Z,28.87
2017-09-30T10:31:45.219Z,33.40
2017-09-30T10:34:12.721Z,26.67
2017-09-30T10:36:41.025Z,28.63
2017-09-30T10:39:08.539Z,28.33
2017-09-30T10:41:36.041Z,33.87
2017-09-30T10:44:03.562Z,30.40
2017-09-30T10:46:31.105Z,30.07
2017-09-30T10:48:58.655Z,28.63
2017-09-30T10:51:26.156Z,30.20
2017-09-30T10:53:53.665Z,34.67
2017-09-30T10:56:21.189Z,26.57
2017-09-30T10:58:48.708Z,30.90
2017-09-30T11:01:16.237Z,24.67
2017-09-30T11:03:43.736Z,25.47
2017-09-30T11:06:11.257Z,28.40
2017-09-30T11:08:38.777Z,28.87
2017-09-30T11:11:06.308Z,26.13
2017-09-30T11:13:33.820Z,27.70
2017-09-30T11:16:01.318Z,33.17
2017-09-30T11:18:28.845Z,25.60
2017-09-30T11:20:56.345Z,27.10
2017-09-30T11:23:23.886Z,29.63
2017-09-30T11:25:51.385Z,28.13
2017-09-30T11:28:18.893Z,28.93
2017-09-30T11:30:47.190Z,30.10
2017-09-30T11:33:14.701Z,25.93
2017-09-30T11:35:43.013Z,22.50
2017-09-30T11:38:10.520Z,24.13
2017-09-30T11:40:38.027Z,17.03
2017-09-30T11:43:05.558Z,23.20
2017-09-30T11:45:33.061Z,18.10
2017-09-30T11:48:00.581Z,22.13
2017-09-30T11:50:28.081Z,21.80
2017-09-30T11:52:55.599Z,18.90
2017-09-30T11:55:23.090Z,17.93
2017-09-30T11:57:51.389Z,16.43
2017-09-30T12:00:19.349Z,16.90
2017-09-30T12:02:46.840Z,22.83
2017-09-30T12:05:14.362Z,22.00
2017-09-30T12:07:41.869Z,15.87
2017-09-30T12:10:09.396Z,23.20
2017-09-30T12:12:36.893Z,15.30
2017-09-30T12:15:04.418Z,21.60
2017-09-30T12:17:31.919Z,15.40
2017-09-30T12:20:00.184Z,20.97
2017-09-30T12:22:28.469Z,14.37
2017-09-30T12:24:55.973Z,16.50
2017-09-30T12:27:24.266Z,19.20
2017-09-30T12:29:51.758Z,10.50
2017-09-30T12:32:19.281Z,12.13
2017-09-30T12:34:46.794Z,18.97
2017-09-30T12:37:14.289Z,15.23
2017-09-30T12:39:41.804Z,14.40
2017-09-30T12:42:09.293Z,18.93
2017-09-30T12:44:37.572Z,12.60
2017-09-30T12:47:05.153Z,13.93
2017-09-30T12:49:32.653Z,14.50
2017-09-30T12:52:00.950Z,15.23
2017-09-30T12:54:28.498Z,16.63
2017-09-30T12:56:56.005Z,8.03
2017-09-30T12:59:23.543Z,18.67
2017-09-30T13:01:51.805Z,12.17
2017-09-30T13:04:19.357Z,11.53
2017-09-30T13:06:46.845Z,10.33
2017-09-30T13:09:14.360Z,5.20
2017-09-30T13:11:41.856Z,8.90
2017-09-30T13:14:09.369Z,2.80
2017-09-30T13:16:36.940Z,7.43
2017-09-30T13:19:04.453Z,4.40
2017-09-30T13:21:31.945Z,6.23
2017-09-30T13:24:00.238Z,8.93
2017-09-30T13:26:27.728Z,7.23
2017-09-30T13:28:55.221Z,9.80
2017-09-30T13:31:22.737Z,7.53
2017-09-30T13:33:50.990Z,6.47
2017-09-30T13:36:19.274Z,12.90
2017-09-30T13:38:46.769Z,7.43
2017-09-30T13:41:14.292Z,8.30
2017-09-30T13:43:41.785Z,5.50
2017-09-30T13:46:10.037Z,6.27
2017-09-30T13:48:37.643Z,6.93
2017-09-30T13:51:05.168Z,4.60
2017-09-30T13:53:32.684Z,4.83
2017-09-30T13:56:00.937Z,7.27
2017-09-30T13:58:29.216Z,10.23
2017-09-30T14:00:56.752Z,9.43
2017-09-30T14:03:25.007Z,7.00
2017-09-30T14:05:53.266Z,10.10
2017-09-30T14:08:21.541Z,5.33
2017-09-30T14:10:49.796Z,6.60
2017-09-30T14:13:18.107Z,7.87
2017-09-30T14:15:45.589Z,3.70
2017-09-30T14:18:13.873Z,9.13
2017-09-30T14:20:41.386Z,4.93
2017-09-30T14:23:08.876Z,11.80
2017-09-30T14:25:36.402Z,7.57
2017-09-30T14:28:03.893Z,7.03
2017-09-30T14:30:31.425Z,4.67
2017-09-30T14:32:58.913Z,7.10
2017-09-30T14:35:27.169Z,3.93
2017-09-30T14:37:55.451Z,8.40
2017-09-30T14:40:22.970Z,13.63
2017-09-30T14:42:51.260Z,8.57
2017-09-30T14:45:18.777Z,7.30
2017-09-30T14:47:47.046Z,12.67
2017-09-30T14:50:15.329Z,8.47
2017-09-30T14:52:42.818Z,4.50
2017-09-30T14:55:10.328Z,7.73
2017-09-30T14:57:37.814Z,6.40
2017-09-30T15:00:05.325Z,7.70
2017-09-30T15:02:32.845Z,7.30
2017-09-30T15:05:00.336Z,9.00
2017-09-30T15:07:27.848Z,7.40
2017-09-30T15:09:55.338Z,7.03
2017-09-30T15:12:22.861Z,6.77
2017-09-30T15:14:50.357Z,9.17
2017-09-30T15:17:17.848Z,7.37
2017-09-30T15:19:45.365Z,7.43
2017-09-30T15:22:12.858Z,9.13
2017-09-30T15:24:41.154Z,7.57
2017-09-30T15:27:08.654Z,10.10
2017-09-30T15:29:36.149Z,7.47
2017-09-30T15:32:03.669Z,10.40
2017-09-30T15:34:31.161Z,7.40
2017-09-30T15:36:58.701Z,7.83
2017-09-30T15:39:26.199Z,6.40
2017-09-30T15:41:53.687Z,8.50
2017-09-30T15:44:21.202Z,8.33
2017-09-30T15:46:48.714Z,7.57
2017-09-30T15:49:16.961Z,8.20
2017-09-30T15:51:44.454Z,6.83
2017-09-30T15:54:11.965Z,4.37
2017-09-30T15:56:39.477Z,12.33
2017-09-30T15:59:06.973Z,10.03
2017-09-30T16:01:34.504Z,8.17
2017-09-30T16:04:02.001Z,6.63
2017-09-30T16:06:29.534Z,5.80
2017-09-30T16:08:57.025Z,8.23
2017-09-30T16:11:25.283Z,7.53
2017-09-30T16:13:53.563Z,6.60
2017-09-30T16:16:21.055Z,9.30
2017-09-30T16:18:48.581Z,11.80
2017-09-30T16:21:16.077Z,10.50
2017-09-30T16:23:43.584Z,9.77
2017-09-30T16:26:11.105Z,11.40
2017-09-30T16:28:38.606Z,6.67
2017-09-30T16:31:06.901Z,9.13
2017-09-30T16:33:34.393Z,10.07
2017-09-30T16:36:01.890Z,10.10
2017-09-30T16:38:29.408Z,11.37
2017-09-30T16:40:56.904Z,7.00
2017-09-30T16:43:24.416Z,9.53
2017-09-30T16:45:51.904Z,6.70
2017-09-30T16:48:19.417Z,9.00
2017-09-30T16:50:46.929Z,9.70
2017-09-30T16:53:14.461Z,7.60
2017-09-30T16:55:41.959Z,6.63
2017-09-30T16:58:09.454Z,13.53
2017-09-30T17:00:36.980Z,13.23
2017-09-30T17:03:05.268Z,6.27
2017-09-30T17:05:32.765Z,11.60
2017-09-30T17:08:00.251Z,8.87
2017-09-30T17:10:27.769Z,6.77
2017-09-30T17:12:56.029Z,6.93
2017-09-30T17:15:24.320Z,11.37
2017-09-30T17:17:51.813Z,11.33
2017-09-30T17:20:19.305Z,17.50
2017-09-30T17:22:46.821Z,15.87
2017-09-30T17:25:15.114Z,10.13
2017-09-30T17:27:42.611Z,11.63
2017-09-30T17:30:10.102Z,8.87
2017-09-30T17:32:37.625Z,15.33
2017-09-30T17:35:05.123Z,10.80
2017-09-30T17:37:32.613Z,12.50
2017-09-30T17:40:00.133Z,19.00
2017-09-30T17:42:27.629Z,17.40
2017-09-30T17:44:55.170Z,12.00
2017-09-30T17:47:22.660Z,12.27
2017-09-30T17:49:50.157Z,13.83
2017-09-30T17:52:17.706Z,15.30
2017-09-30T17:54:45.205Z,14.33
2017-09-30T17:57:12.725Z,15.80
2017-09-30T17:59:40.217Z,16.80
2017-09-30T18:02:07.745Z,18.03
2017-09-30T18:04:35.269Z,17.37
2017-09-30T18:07:02.772Z,13.63
2017-09-30T18:09:30.300Z,20.40
2017-09-30T18:11:57.789Z,19.27
2017-09-30T18:14:26.156Z,15.27
2017-09-30T18:16:54.452Z,18.23
2017-09-30T18:19:21.973Z,19.23
2017-09-30T18:21:50.238Z,19.77
2017-09-30T18:24:17.762Z,18.10
2017-09-30T18:26:46.021Z,16.07
2017-09-30T18:29:14.305Z,15.30
2017-09-30T18:31:41.846Z,15.50
2017-09-30T18:34:09.341Z,20.67
2017-09-30T18:36:36.844Z,23.67
2017-09-30T18:39:04.365Z,19.07
2017-09-30T18:41:32.667Z,26.10
2017-09-30T18:44:00.161Z,14.00
2017-09-30T18:46:27.658Z,18.63
2017-09-30T18:48:55.185Z,17.40
2017-09-30T18:51:22.719Z,15.80
2017-09-30T18:53:50.261Z,25.07
2017-09-30T18:56:17.758Z,22.33
2017-09-30T18:58:45.258Z,19.50
2017-09-30T19:01:12.794Z,19.17
2017-09-30T19:03:40.294Z,16.20
2017-09-30T19:06:07.793Z,21.23
2017-09-30T19:08:35.313Z,17.20
2017-09-30T19:11:03.575Z,18.20
2017-09-30T19:13:31.865Z,17.50
2017-09-30T19:15:59.357Z,19.33
2017-09-30T19:18:26.880Z,20.97
2017-09-30T19:20:54.400Z,28.10
2017-09-30T19:23:21.925Z,28.67
2017-09-30T19:25:49.418Z,51.40
2017-09-30T19:28:16.916Z,42.37
2017-09-30T19:30:44.437Z,44.20
2017-09-30T19:33:12.731Z,25.63
2017-09-30T19:35:40.261Z,34.53
2017-09-30T19:38:07.764Z,21.80
2017-09-30T19:40:35.298Z,32.43
2017-09-30T19:43:02.789Z,26.80
2017-09-30T19:45:30.302Z,32.27
2017-09-30T19:47:58.598Z,23.70
2017-09-30T19:50:26.097Z,22.10
2017-09-30T19:52:53.593Z,18.60
2017-09-30T19:55:21.129Z,21.67
2017-09-30T19:57:48.621Z,15.07
2017-09-30T20:00:16.109Z,17.10
2017-09-30T20:02:43.637Z,23.47
2017-09-30T20:05:11.893Z,17.87
2017-09-30T20:07:39.431Z,18.60
2017-09-30T20:10:07.693Z,22.07
2017-09-30T20:12:35.998Z,30.17
2017-09-30T20:15:03.505Z,20.33
2017-09-30T20:17:31.006Z,23.37
2017-09-30T20:19:58.545Z,18.60
2017-09-30T20:22:26.033Z,19.00
2017-09-30T20:24:54.312Z,26.60
2017-09-30T20:27:21.834Z,23.50
2017-09-30T20:29:50.127Z,24.37
2017-09-30T20:32:17.617Z,22.40
2017-09-30T20:34:45.143Z,21.13
2017-09-30T20:37:12.637Z,17.50
2017-09-30T20:39:40.164Z,21.93
2017-09-30T20:42:08.434Z,24.87
2017-09-30T20:44:35.958Z,18.57
2017-09-30T20:49:37.464Z,15.97
2017-09-30T20:52:04.966Z,16.10
2017-09-30T20:54:32.498Z,12.57
2017-09-30T20:57:00.764Z,17.93
2017-09-30T20:59:28.309Z,22.07
2017-09-30T21:01:55.805Z,16.73
2017-09-30T21:04:23.302Z,16.50
2017-09-30T21:06:50.830Z,14.90
2017-09-30T21:09:18.341Z,16.77
2017-09-30T21:11:45.873Z,13.80
2017-09-30T21:14:13.365Z,16.70
2017-09-30T21:16:41.642Z,15.20
2017-09-30T21:19:09.166Z,16.63
2017-09-30T21:21:37.433Z,14.93
2017-09-30T21:24:05.729Z,14.60
2017-09-30T21:26:33.231Z,16.33
2017-09-30T21:29:01.493Z,19.00
2017-09-30T21:31:29.781Z,19.90
2017-09-30T21:33:57.278Z,11.00
2017-09-30T21:36:24.768Z,17.43
2017-09-30T21:38:52.295Z,17.50
2017-09-30T21:41:19.797Z,23.83
2017-09-30T21:43:47.293Z,17.80
2017-09-30T21:46:14.814Z,33.67
2017-09-30T21:48:43.082Z,16.47
2017-09-30T21:51:10.602Z,19.93
2017-09-30T21:53:38.866Z,22.60
2017-09-30T21:56:07.157Z,21.90
2017-09-30T21:58:34.645Z,13.10
2017-09-30T22:01:02.128Z,20.53
2017-09-30T22:03:29.661Z,15.93
2017-09-30T22:05:57.913Z,20.90
2017-09-30T22:08:25.400Z,15.47
2017-09-30T22:10:52.921Z,12.43
2017-09-30T22:13:21.197Z,14.10
2017-09-30T22:15:48.726Z,14.17
2017-09-30T22:18:16.213Z,14.30
2017-09-30T22:20:43.761Z,11.07
2017-09-30T22:23:11.248Z,8.70
2017-09-30T22:25:39.507Z,9.50
2017-09-30T22:28:07.781Z,8.83
2017-09-30T22:30:35.269Z,8.87
2017-09-30T22:33:02.818Z,8.97
2017-09-30T22:35:30.659Z,9.00
2017-09-30T22:37:58.177Z,9.13
2017-09-30T22:40:25.665Z,7.70
2017-09-30T22:42:53.181Z,11.20
2017-09-30T22:45:20.669Z,7.80
2017-09-30T22:47:48.956Z,9.10
2017-09-30T22:50:16.457Z,7.30
2017-09-30T22:52:43.945Z,18.60
2017-09-30T22:55:11.470Z,10.57
2017-09-30T22:57:39.731Z,8.07
2017-09-30T23:00:08.035Z,10.87
2017-09-30T23:02:35.529Z,11.90
2017-09-30T23:05:03.790Z,12.23
2017-09-30T23:07:32.082Z,11.23
2017-09-30T23:09:59.597Z,9.57
2017-09-30T23:12:27.849Z,7.43
2017-09-30T23:14:55.377Z,18.63
2017-09-30T23:17:22.869Z,7.97
2017-09-30T23:19:50.364Z,11.10
2017-09-30T23:22:17.889Z,11.33
2017-09-30T23:24:45.377Z,6.50
2017-09-30T23:27:13.657Z,11.23
2017-09-30T23:29:41.167Z,9.77
2017-09-30T23:32:09.453Z,10.20
2017-09-30T23:34:36.941Z,9.13
2017-09-30T23:37:04.469Z,10.53
2017-09-30T23:39:31.957Z,13.10
2017-09-30T23:41:59.450Z,13.47
2017-09-30T23:44:26.973Z,7.30
2017-09-30T23:46:54.489Z,13.80
2017-09-30T23:49:22.751Z,8.40
2017-09-30T23:51:51.053Z,15.70
2017-09-30T23:54:18.538Z,9.93
2017-09-30T23:56:46.045Z,7.70
2017-09-30T23:59:13.532Z,8.30
